createdAt,value
2022-09-25T00:00:43.608Z,101116.06
2022-09-25T00:03:14.720Z,101106.44
2022-09-25T00:05:43.109Z,101116.06
2022-09-25T00:08:10.403Z,101119.56
2022-09-25T00:10:45.651Z,101108.22
2022-09-25T00:13:12.282Z,101117.84
2022-09-25T00:15:45.093Z,101109.09
2022-09-25T00:18:11.557Z,101113.44
2022-09-25T00:20:38.003Z,101111.66
2022-09-25T00:23:04.374Z,101104.59
2022-09-25T00:25:30.721Z,101113.44
2022-09-25T00:27:58.314Z,101110.00
2022-09-25T00:30:24.738Z,101110.00
2022-09-25T00:32:51.097Z,101103.88
2022-09-25T00:35:17.671Z,101109.16
2022-09-25T00:37:44.055Z,101105.59
2022-09-25T00:40:10.579Z,101103.81
2022-09-25T00:42:37.105Z,101107.38
2022-09-25T00:45:18.482Z,101103.97
2022-09-25T00:48:06.517Z,101100.38
2022-09-25T00:50:45.229Z,101108.22
2022-09-25T00:53:16.920Z,101114.28
2022-09-25T00:55:45.121Z,101108.06
2022-09-25T00:58:14.783Z,101106.31
2022-09-25T01:00:41.512Z,101102.75
2022-09-25T01:03:08.744Z,101101.91
2022-09-25T01:05:38.510Z,101105.41
2022-09-25T01:08:07.888Z,101110.69
2022-09-25T01:10:34.354Z,101103.69
2022-09-25T01:13:01.121Z,101104.59
2022-09-25T01:15:41.334Z,101103.88
2022-09-25T01:18:18.016Z,101102.16
2022-09-25T01:21:11.501Z,101105.75
2022-09-25T01:23:48.708Z,101103.03
2022-09-25T01:26:44.256Z,101105.59
2022-09-25T01:29:23.052Z,101100.47
2022-09-25T01:32:18.074Z,101102.38
2022-09-25T01:35:09.695Z,101101.50
2022-09-25T01:37:44.777Z,101097.94
2022-09-25T01:40:26.437Z,101102.38
2022-09-25T01:43:05.336Z,101101.41
2022-09-25T01:45:42.524Z,101100.53
2022-09-25T01:48:10.115Z,101095.19
2022-09-25T01:50:44.797Z,101097.91
2022-09-25T01:53:16.559Z,101096.97
2022-09-25T01:55:48.705Z,101098.78
2022-09-25T01:58:28.038Z,101099.66
2022-09-25T02:01:02.576Z,101098.78
2022-09-25T02:03:45.857Z,101093.59
2022-09-25T02:06:17.399Z,101095.31
2022-09-25T02:08:49.670Z,101094.44
2022-09-25T02:11:16.253Z,101091.81
2022-09-25T02:13:59.274Z,101093.81
2022-09-25T02:16:36.110Z,101098.16
2022-09-25T02:19:21.922Z,101097.25
2022-09-25T02:21:59.952Z,101103.56
2022-09-25T02:25:12.743Z,101104.56
2022-09-25T02:27:39.187Z,101102.78
2022-09-25T02:30:06.073Z,101101.00
2022-09-25T02:32:33.099Z,101098.44
2022-09-25T02:34:59.957Z,101098.50
2022-09-25T02:37:26.897Z,101095.94
2022-09-25T02:39:58.063Z,101088.88
2022-09-25T02:42:55.280Z,101090.72
2022-09-25T02:45:49.159Z,101101.16
2022-09-25T02:48:32.194Z,101090.53
2022-09-25T02:51:12.250Z,101089.66
2022-09-25T02:53:43.111Z,101096.56
2022-09-25T02:56:20.457Z,101094.88
2022-09-25T02:58:52.231Z,101094.78
2022-09-25T03:01:22.362Z,101091.31
2022-09-25T03:03:51.700Z,101089.53
2022-09-25T03:06:19.318Z,101090.34
2022-09-25T03:08:51.876Z,101093.81
2022-09-25T03:11:21.168Z,101095.53
2022-09-25T03:14:04.580Z,101092.13
2022-09-25T03:16:38.108Z,101092.88
2022-09-25T03:19:05.067Z,101091.19
2022-09-25T03:21:32.708Z,101083.31
2022-09-25T03:24:00.193Z,101085.06
2022-09-25T03:26:30.250Z,101086.84
2022-09-25T03:28:57.144Z,101088.47
2022-09-25T03:31:23.686Z,101088.41
2022-09-25T03:33:50.232Z,101085.69
2022-09-25T03:36:20.180Z,101083.03
2022-09-25T03:38:50.463Z,101079.47
2022-09-25T03:41:20.985Z,101082.13
2022-09-25T03:43:51.538Z,101079.44
2022-09-25T03:46:29.296Z,101082.13
2022-09-25T03:48:57.127Z,101082.19
2022-09-25T03:51:25.307Z,101091.03
2022-09-25T03:53:51.904Z,101087.47
2022-09-25T03:56:20.802Z,101083.03
2022-09-25T03:58:49.069Z,101083.91
2022-09-25T04:01:16.159Z,101076.84
2022-09-25T04:03:46.998Z,101078.50
2022-09-25T04:06:18.224Z,101076.78
2022-09-25T04:08:45.873Z,101077.78
2022-09-25T04:11:12.748Z,101083.97
2022-09-25T04:13:41.982Z,101072.72
2022-09-25T04:16:08.694Z,101075.41
2022-09-25T04:18:35.707Z,101071.97
2022-09-25T04:21:05.379Z,101076.34
2022-09-25T04:23:32.549Z,101074.56
2022-09-25T04:25:58.931Z,101072.75
2022-09-25T04:28:26.041Z,101077.16
2022-09-25T04:30:52.916Z,101073.56
2022-09-25T04:33:38.210Z,101075.22
2022-09-25T04:36:05.468Z,101074.28
2022-09-25T04:38:32.566Z,101082.19
2022-09-25T04:41:02.518Z,101082.19
2022-09-25T04:43:30.350Z,101077.91
2022-09-25T04:46:04.567Z,101076.13
2022-09-25T04:48:32.376Z,101077.00
2022-09-25T04:50:58.777Z,101077.84
2022-09-25T04:53:30.101Z,101077.00
2022-09-25T04:56:05.276Z,101080.56
2022-09-25T04:58:31.898Z,101075.13
2022-09-25T05:01:06.777Z,101075.22
2022-09-25T05:03:33.526Z,101073.34
2022-09-25T05:05:59.982Z,101075.13
2022-09-25T05:08:27.590Z,101075.13
2022-09-25T05:10:54.090Z,101082.97
2022-09-25T05:13:20.529Z,101075.91
2022-09-25T05:15:47.132Z,101075.00
2022-09-25T05:18:18.334Z,101075.91
2022-09-25T05:20:45.216Z,101069.75
2022-09-25T05:23:11.606Z,101075.88
2022-09-25T05:25:38.223Z,101072.38
2022-09-25T05:28:04.748Z,101074.94
2022-09-25T05:30:33.679Z,101074.09
2022-09-25T05:33:00.305Z,101077.56
2022-09-25T05:35:29.138Z,101076.78
2022-09-25T05:37:55.975Z,101083.78
2022-09-25T05:40:23.597Z,101066.25
2022-09-25T05:42:50.336Z,101075.78
2022-09-25T05:45:18.938Z,101079.38
2022-09-25T05:47:45.645Z,101073.16
2022-09-25T05:50:14.344Z,101072.16
2022-09-25T05:52:41.185Z,101072.94
2022-09-25T05:55:09.531Z,101068.50
2022-09-25T05:57:37.332Z,101073.78
2022-09-25T06:00:07.780Z,101068.50
2022-09-25T06:02:38.297Z,101071.97
2022-09-25T06:05:04.800Z,101068.47
2022-09-25T06:07:31.322Z,101069.31
2022-09-25T06:09:57.721Z,101065.81
2022-09-25T06:12:24.764Z,101064.03
2022-09-25T06:14:52.351Z,101063.88
2022-09-25T06:17:19.042Z,101064.75
2022-09-25T06:19:45.390Z,101059.47
2022-09-25T06:22:12.040Z,101065.59
2022-09-25T06:24:38.472Z,101058.53
2022-09-25T06:27:06.282Z,101060.31
2022-09-25T06:29:32.670Z,101069.00
2022-09-25T06:31:59.069Z,101064.59
2022-09-25T06:34:25.817Z,101066.44
2022-09-25T06:36:52.246Z,101070.78
2022-09-25T06:39:18.580Z,101070.78
2022-09-25T06:41:45.256Z,101063.75
2022-09-25T06:44:21.041Z,101065.47
2022-09-25T06:46:54.531Z,101064.75
2022-09-25T06:49:21.673Z,101069.09
2022-09-25T06:51:48.149Z,101075.13
2022-09-25T06:54:14.539Z,101067.31
2022-09-25T06:56:41.136Z,101069.09
2022-09-25T06:59:09.066Z,101068.22
2022-09-25T07:01:35.984Z,101064.97
2022-09-25T07:04:03.915Z,101072.06
2022-09-25T07:06:31.581Z,101072.06
2022-09-25T07:08:58.008Z,101069.50
2022-09-25T07:11:27.938Z,101070.38
2022-09-25T07:13:55.099Z,101073.66
2022-09-25T07:16:24.632Z,101071.03
2022-09-25T07:18:54.195Z,101075.28
2022-09-25T07:21:24.314Z,101075.28
2022-09-25T07:23:52.072Z,101070.16
2022-09-25T07:26:22.466Z,101075.53
2022-09-25T07:29:03.681Z,101083.47
2022-09-25T07:31:33.035Z,101077.34
2022-09-25T07:34:02.887Z,101074.66
2022-09-25T07:36:29.785Z,101074.66
2022-09-25T07:38:56.290Z,101078.94
2022-09-25T07:41:23.511Z,101075.28
2022-09-25T07:44:17.584Z,101080.50
2022-09-25T07:46:43.257Z,101076.72
2022-09-25T07:49:09.963Z,101080.22
2022-09-25T07:51:36.523Z,101079.44
2022-09-25T07:54:03.046Z,101082.94
2022-09-25T07:56:29.480Z,101080.41
2022-09-25T07:58:56.013Z,101081.34
2022-09-25T08:01:22.400Z,101082.34
2022-09-25T08:03:49.293Z,101081.50
2022-09-25T08:06:15.638Z,101081.56
2022-09-25T08:08:43.484Z,101085.94
2022-09-25T08:11:12.381Z,101077.09
2022-09-25T08:13:39.860Z,101083.13
2022-09-25T08:16:11.367Z,101083.06
2022-09-25T08:18:38.781Z,101092.72
2022-09-25T08:21:05.467Z,101082.19
2022-09-25T08:23:32.329Z,101083.06
2022-09-25T08:25:59.285Z,101086.69
2022-09-25T08:28:26.328Z,101088.41
2022-09-25T08:30:53.108Z,101087.63
2022-09-25T08:33:20.520Z,101081.66
2022-09-25T08:35:58.378Z,101089.06
2022-09-25T08:38:26.301Z,101080.22
2022-09-25T08:41:07.004Z,101088.91
2022-09-25T08:43:38.056Z,101086.34
2022-09-25T08:46:36.837Z,101091.88
2022-09-25T08:49:07.037Z,101079.72
2022-09-25T08:51:47.272Z,101084.41
2022-09-25T08:54:20.884Z,101088.03
2022-09-25T08:56:50.640Z,101092.50
2022-09-25T08:59:35.707Z,101090.84
2022-09-25T09:02:24.901Z,101088.16
2022-09-25T09:04:55.569Z,101086.19
2022-09-25T09:07:33.993Z,101092.31
2022-09-25T09:10:10.861Z,101090.34
2022-09-25T09:12:43.611Z,101085.06
2022-09-25T09:15:45.518Z,101090.34
2022-09-25T09:18:24.037Z,101085.69
2022-09-25T09:21:02.130Z,101089.84
2022-09-25T09:23:40.131Z,101089.91
2022-09-25T09:26:25.122Z,101087.06
2022-09-25T09:29:12.563Z,101087.72
2022-09-25T09:32:09.586Z,101086.78
2022-09-25T09:35:04.575Z,101086.78
2022-09-25T09:37:51.257Z,101088.06
2022-09-25T09:40:32.802Z,101090.00
2022-09-25T09:43:34.585Z,101086.69
2022-09-25T09:46:14.201Z,101098.03
2022-09-25T09:48:51.165Z,101090.25
2022-09-25T09:52:00.630Z,101095.47
2022-09-25T09:54:46.450Z,101089.41
2022-09-25T09:57:21.263Z,101094.44
2022-09-25T09:59:54.814Z,101093.47
2022-09-25T10:02:41.423Z,101091.75
2022-09-25T10:05:18.020Z,101089.84
2022-09-25T10:07:47.789Z,101083.78
2022-09-25T10:10:16.707Z,101088.91
2022-09-25T10:12:51.214Z,101085.34
2022-09-25T10:15:56.433Z,101081.78
2022-09-25T10:18:27.932Z,101085.34
2022-09-25T10:20:59.773Z,101081.00
2022-09-25T10:23:35.644Z,101083.78
2022-09-25T10:26:02.151Z,101086.28
2022-09-25T10:28:37.316Z,101082.78
2022-09-25T10:31:06.988Z,101082.94
2022-09-25T10:33:33.567Z,101082.97
2022-09-25T10:36:00.318Z,101078.63
2022-09-25T10:38:48.239Z,101074.28
2022-09-25T10:41:18.255Z,101073.34
2022-09-25T10:44:02.431Z,101077.78
2022-09-25T10:46:53.280Z,101075.06
2022-09-25T10:49:39.256Z,101080.28
2022-09-25T10:52:10.513Z,101084.34
2022-09-25T10:54:43.553Z,101070.25
2022-09-25T10:57:34.508Z,101071.81
2022-09-25T11:00:03.518Z,101074.09
2022-09-25T11:02:38.430Z,101079.38
2022-09-25T11:05:16.459Z,101075.88
2022-09-25T11:07:56.149Z,101081.03
2022-09-25T11:10:25.851Z,101073.97
2022-09-25T11:12:53.639Z,101074.09
2022-09-25T11:15:23.096Z,101072.38
2022-09-25T11:17:52.537Z,101077.66
2022-09-25T11:20:19.181Z,101076.59
2022-09-25T11:23:04.650Z,101073.31
2022-09-25T11:25:40.326Z,101074.94
2022-09-25T11:28:34.784Z,101068.78
2022-09-25T11:31:21.424Z,101077.34
2022-09-25T11:34:02.162Z,101073.00
2022-09-25T11:36:38.628Z,101076.50
2022-09-25T11:39:34.248Z,101076.41
2022-09-25T11:42:11.735Z,101068.78
2022-09-25T11:44:54.195Z,101076.16
2022-09-25T11:47:20.515Z,101078.09
2022-09-25T11:49:53.056Z,101074.72
2022-09-25T11:52:41.627Z,101067.09
2022-09-25T11:55:23.097Z,101068.66
2022-09-25T11:58:26.351Z,101074.66
2022-09-25T12:01:01.722Z,101078.00
2022-09-25T12:03:51.055Z,101076.31
2022-09-25T12:06:31.975Z,101071.22
2022-09-25T12:09:26.080Z,101074.00
2022-09-25T12:12:07.425Z,101067.72
2022-09-25T12:14:51.664Z,101063.22
2022-09-25T12:17:55.852Z,101066.44
2022-09-25T12:20:52.547Z,101066.25
2022-09-25T12:23:31.272Z,101067.22
2022-09-25T12:26:45.842Z,101065.53
2022-09-25T12:29:19.556Z,101060.13
2022-09-25T12:32:00.506Z,101054.97
2022-09-25T12:34:50.612Z,101058.22
2022-09-25T12:37:27.537Z,101054.44
2022-09-25T12:40:01.334Z,101051.88
2022-09-25T12:42:52.397Z,101052.81
2022-09-25T12:45:33.250Z,101053.66
2022-09-25T12:48:26.242Z,101051.03
2022-09-25T12:51:02.769Z,101048.31
2022-09-25T12:53:49.322Z,101044.09
2022-09-25T12:56:24.153Z,101031.81
2022-09-25T12:59:05.216Z,101035.97
2022-09-25T13:01:48.473Z,101033.94
2022-09-25T13:04:35.190Z,101034.88
2022-09-25T13:07:13.594Z,101038.31
2022-09-25T13:09:47.191Z,101031.47
2022-09-25T13:12:21.339Z,101027.03
2022-09-25T13:15:00.469Z,101025.75
2022-09-25T13:17:26.975Z,101027.88
2022-09-25T13:19:53.613Z,101025.03
2022-09-25T13:22:27.273Z,101026.44
2022-09-25T13:25:14.119Z,101016.19
2022-09-25T13:27:45.667Z,101010.41
2022-09-25T13:30:28.959Z,101011.94
2022-09-25T13:33:02.796Z,101011.00
2022-09-25T13:35:31.729Z,101007.59
2022-09-25T13:38:14.313Z,101007.81
2022-09-25T13:40:43.614Z,101009.84
2022-09-25T13:43:22.662Z,101006.66
2022-09-25T13:46:09.486Z,101005.78
2022-09-25T13:48:36.937Z,101012.09
2022-09-25T13:51:18.868Z,101005.97
2022-09-25T13:54:02.844Z,101001.53
2022-09-25T13:56:46.790Z,101006.84
2022-09-25T13:59:13.853Z,101008.66
2022-09-25T14:01:42.201Z,101007.66
2022-09-25T14:04:25.071Z,101000.81
2022-09-25T14:06:55.751Z,101008.66
2022-09-25T14:09:25.428Z,101001.53
2022-09-25T14:12:04.195Z,100997.16
2022-09-25T14:15:03.140Z,101000.50
2022-09-25T14:17:32.133Z,100995.16
2022-09-25T14:20:01.877Z,100996.94
2022-09-25T14:22:39.201Z,100996.84
2022-09-25T14:25:23.893Z,100991.66
2022-09-25T14:27:52.771Z,100988.31
2022-09-25T14:30:19.795Z,100988.47
2022-09-25T14:33:12.993Z,100979.00
2022-09-25T14:36:08.977Z,100987.03
2022-09-25T14:38:58.674Z,100989.75
2022-09-25T14:41:52.815Z,100986.34
2022-09-25T14:44:38.122Z,100982.84
2022-09-25T14:47:07.749Z,100979.13
2022-09-25T14:49:39.500Z,100980.78
2022-09-25T14:52:15.276Z,100974.47
2022-09-25T14:54:46.331Z,100971.53
2022-09-25T14:57:19.036Z,100971.09
2022-09-25T14:59:53.804Z,100962.22
2022-09-25T15:02:33.646Z,100962.59
2022-09-25T15:05:17.074Z,100955.59
2022-09-25T15:07:45.927Z,100936.16
2022-09-25T15:10:31.078Z,100941.31
2022-09-25T15:13:18.584Z,100928.59
2022-09-25T15:16:07.247Z,100921.06
2022-09-25T15:18:38.533Z,100936.22
2022-09-25T15:21:08.583Z,100929.50
2022-09-25T15:23:38.375Z,100925.81
2022-09-25T15:26:04.892Z,100933.91
2022-09-25T15:28:39.981Z,100924.34
2022-09-25T15:31:06.988Z,100928.78
2022-09-25T15:33:37.058Z,100936.81
2022-09-25T15:36:23.901Z,100933.75
2022-09-25T15:38:58.178Z,100935.88
2022-09-25T15:41:24.894Z,100929.28
2022-09-25T15:43:51.817Z,100927.09
2022-09-25T15:46:41.004Z,100927.72
2022-09-25T15:49:07.743Z,100922.69
2022-09-25T15:51:36.305Z,100923.75
2022-09-25T15:54:17.725Z,100922.13
2022-09-25T15:56:48.667Z,100920.28
2022-09-25T15:59:25.838Z,100915.94
2022-09-25T16:02:11.570Z,100919.28
2022-09-25T16:04:49.388Z,100923.69
2022-09-25T16:07:27.815Z,100921.97
2022-09-25T16:09:57.998Z,100918.34
2022-09-25T16:12:32.720Z,100923.00
2022-09-25T16:14:59.405Z,100918.00
2022-09-25T16:17:37.402Z,100914.91
2022-09-25T16:20:29.802Z,100922.50
2022-09-25T16:23:04.291Z,100920.94
2022-09-25T16:25:42.179Z,100921.41
2022-09-25T16:28:16.466Z,100925.13
2022-09-25T16:30:55.100Z,100922.06
2022-09-25T16:33:32.916Z,100915.38
2022-09-25T16:36:17.508Z,100915.00
2022-09-25T16:39:07.453Z,100912.69
2022-09-25T16:41:35.855Z,100916.31
2022-09-25T16:44:28.599Z,100914.91
2022-09-25T16:46:54.905Z,100915.13
2022-09-25T16:49:21.420Z,100916.25
2022-09-25T16:51:49.388Z,100920.97
2022-09-25T16:54:18.724Z,100917.69
2022-09-25T16:56:48.058Z,100914.47
2022-09-25T16:59:24.199Z,100917.38
2022-09-25T17:01:53.470Z,100907.06
2022-09-25T17:04:23.745Z,100906.47
2022-09-25T17:06:50.269Z,100912.03
2022-09-25T17:09:18.475Z,100902.69
2022-09-25T17:11:47.064Z,100900.19
2022-09-25T17:14:23.182Z,100899.53
2022-09-25T17:16:53.672Z,100897.91
2022-09-25T17:19:21.216Z,100905.91
2022-09-25T17:21:51.238Z,100895.63
2022-09-25T17:24:20.270Z,100894.88
2022-09-25T17:26:46.734Z,100896.84
2022-09-25T17:29:14.342Z,100904.09
2022-09-25T17:31:40.932Z,100897.22
2022-09-25T17:34:16.820Z,100899.28
2022-09-25T17:36:43.430Z,100899.28
2022-09-25T17:39:10.056Z,100892.50
2022-09-25T17:41:37.558Z,100890.00
2022-09-25T17:44:05.109Z,100889.28
2022-09-25T17:46:33.717Z,100892.00
2022-09-25T17:49:00.739Z,100888.63
2022-09-25T17:51:29.518Z,100898.44
2022-09-25T17:53:59.026Z,100893.56
2022-09-25T17:56:29.373Z,100898.94
2022-09-25T17:58:57.225Z,100901.63
2022-09-25T18:01:27.086Z,100896.50
2022-09-25T18:03:59.572Z,100901.94
2022-09-25T18:06:27.899Z,100892.34
2022-09-25T18:08:55.594Z,100901.34
2022-09-25T18:11:24.037Z,100891.94
2022-09-25T18:13:55.376Z,100903.31
2022-09-25T18:16:27.113Z,100891.88
2022-09-25T18:19:12.445Z,100886.69
2022-09-25T18:21:57.704Z,100884.16
2022-09-25T18:24:24.253Z,100883.31
2022-09-25T18:26:53.440Z,100882.53
2022-09-25T18:29:20.995Z,100880.03
2022-09-25T18:31:48.353Z,100877.44
2022-09-25T18:34:16.012Z,100879.28
2022-09-25T18:36:43.022Z,100878.41
2022-09-25T18:39:09.941Z,100881.97
2022-09-25T18:41:41.930Z,100883.75
2022-09-25T18:44:08.404Z,100888.16
2022-09-25T18:46:37.607Z,100879.47
2022-09-25T18:49:05.901Z,100885.59
2022-09-25T18:51:33.750Z,100883.03
2022-09-25T18:54:00.404Z,100883.88
2022-09-25T18:56:28.073Z,100877.81
2022-09-25T18:58:54.527Z,100878.78
2022-09-25T19:01:21.564Z,100868.34
2022-09-25T19:03:52.574Z,100873.72
2022-09-25T19:06:19.966Z,100866.81
2022-09-25T19:08:52.734Z,100865.13
2022-09-25T19:11:19.567Z,100865.13
2022-09-25T19:13:46.396Z,100857.34
2022-09-25T19:16:14.273Z,100850.38
2022-09-25T19:18:40.827Z,100844.34
2022-09-25T19:21:07.239Z,100843.50
2022-09-25T19:23:35.377Z,100839.28
2022-09-25T19:26:04.921Z,100839.41
2022-09-25T19:28:33.809Z,100836.84
2022-09-25T19:31:03.473Z,100831.72
2022-09-25T19:33:32.934Z,100830.03
2022-09-25T19:36:03.590Z,100830.09
2022-09-25T19:38:35.369Z,100834.56
2022-09-25T19:41:01.942Z,100817.16
2022-09-25T19:43:28.626Z,100825.09
2022-09-25T19:45:56.251Z,100823.56
2022-09-25T19:48:23.814Z,100820.38
2022-09-25T19:50:50.632Z,100827.41
2022-09-25T19:53:18.853Z,100827.66
2022-09-25T19:55:52.872Z,100829.56
2022-09-25T19:58:23.095Z,100826.84
2022-09-25T20:00:50.986Z,100830.34
2022-09-25T20:03:18.083Z,100820.69
2022-09-25T20:05:45.308Z,100820.91
2022-09-25T20:08:11.644Z,100824.47
2022-09-25T20:10:38.317Z,100826.31
2022-09-25T20:13:05.355Z,100820.97
2022-09-25T20:15:33.470Z,100821.84
2022-09-25T20:18:00.281Z,100822.81
2022-09-25T20:20:29.221Z,100816.75
2022-09-25T20:22:56.729Z,100822.00
2022-09-25T20:25:23.819Z,100823.78
2022-09-25T20:27:52.163Z,100826.47
2022-09-25T20:30:19.128Z,100820.34
2022-09-25T20:32:46.042Z,100819.50
2022-09-25T20:35:13.194Z,100815.28
2022-09-25T20:37:39.839Z,100819.63
2022-09-25T20:40:06.577Z,100809.16
2022-09-25T20:42:33.949Z,100816.25
2022-09-25T20:45:00.352Z,100810.19
2022-09-25T20:47:33.459Z,100805.88
2022-09-25T20:50:00.471Z,100811.13
2022-09-25T20:52:27.750Z,100800.75
2022-09-25T20:54:54.164Z,100805.25
2022-09-25T20:57:20.654Z,100801.97
2022-09-25T20:59:47.024Z,100802.25
2022-09-25T21:02:13.890Z,100797.00
2022-09-25T21:04:40.263Z,100800.41
2022-09-25T21:07:06.630Z,100800.28
2022-09-25T21:09:33.107Z,100794.97
2022-09-25T21:11:59.870Z,100780.91
2022-09-25T21:14:28.221Z,100782.69
2022-09-25T21:16:58.945Z,100784.44
2022-09-25T21:19:25.752Z,100790.56
2022-09-25T21:21:52.165Z,100777.50
2022-09-25T21:24:19.982Z,100776.72
2022-09-25T21:26:46.618Z,100775.91
2022-09-25T21:29:15.692Z,100778.63
2022-09-25T21:31:48.949Z,100777.97
2022-09-25T21:34:16.586Z,100771.19
2022-09-25T21:36:43.471Z,100771.38
2022-09-25T21:39:10.074Z,100775.69
2022-09-25T21:41:36.416Z,100771.25
2022-09-25T21:44:07.540Z,100761.66
2022-09-25T21:46:34.820Z,100763.38
2022-09-25T21:49:04.409Z,100754.63
2022-09-25T21:51:37.242Z,100757.25
2022-09-25T21:54:05.680Z,100750.31
2022-09-25T21:56:32.614Z,100751.22
2022-09-25T21:59:01.950Z,100760.88
2022-09-25T22:01:35.100Z,100741.69
2022-09-25T22:04:03.439Z,100744.38
2022-09-25T22:06:33.640Z,100740.09
2022-09-25T22:09:09.975Z,100735.84
2022-09-25T22:11:37.220Z,100735.09
2022-09-25T22:14:05.198Z,100735.19
2022-09-25T22:16:37.426Z,100730.00
2022-09-25T22:19:09.094Z,100724.81
2022-09-25T22:21:36.568Z,100730.97
2022-09-25T22:24:03.987Z,100722.38
2022-09-25T22:26:31.157Z,100724.19
2022-09-25T22:28:57.643Z,100721.63
2022-09-25T22:31:29.756Z,100714.72
2022-09-25T22:33:58.946Z,100710.50
2022-09-25T22:36:27.291Z,100715.06
2022-09-25T22:38:54.725Z,100713.56
2022-09-25T22:41:21.805Z,100704.38
2022-09-25T22:43:53.329Z,100702.06
2022-09-25T22:46:21.199Z,100710.25
2022-09-25T22:48:48.048Z,100710.78
2022-09-25T22:51:19.431Z,100710.97
2022-09-25T22:53:46.536Z,100705.59
2022-09-25T22:56:24.734Z,100708.16
2022-09-25T22:58:53.226Z,100699.31
2022-09-25T23:01:42.499Z,100699.78
2022-09-25T23:04:15.089Z,100699.38
2022-09-25T23:06:41.873Z,100697.66
2022-09-25T23:09:12.022Z,100688.81
2022-09-25T23:11:38.790Z,100680.69
2022-09-25T23:14:14.222Z,100677.78
2022-09-25T23:16:40.602Z,100673.19
2022-09-25T23:19:07.114Z,100671.41
2022-09-25T23:21:33.609Z,100666.94
2022-09-25T23:24:02.426Z,100662.50
2022-09-25T23:26:29.647Z,100654.50
2022-09-25T23:28:58.042Z,100657.03
2022-09-25T23:31:25.577Z,100662.06
2022-09-25T23:33:52.150Z,100655.69
2022-09-25T23:36:20.818Z,100647.75
2022-09-25T23:38:48.813Z,100647.66
2022-09-25T23:41:17.872Z,100640.53
2022-09-25T23:43:45.264Z,100632.75
2022-09-25T23:46:12.523Z,100622.25
2022-09-25T23:48:39.251Z,100613.53
2022-09-25T23:51:06.014Z,100611.75
2022-09-25T23:53:32.507Z,100604.59
2022-09-25T23:55:58.858Z,100598.47
2022-09-25T23:58:25.507Z,100601.03
